sensor_id;sensor_type;location;lat;lon;timestamp;P1;durP1;ratioP1;P2;durP2;ratioP2
10537;SDS011;5317;49.048;8.468;2023-10-09T00:02:02;9.73;;;4.93;;
10537;SDS011;5317;49.048;8.468;2023-10-09T00:04:31;11.87;;;4.90;;
10537;SDS011;5317;49.048;8.468;2023-10-09T00:07:01;10.77;;;5.33;;
10537;SDS011;5317;49.048;8.468;2023-10-09T00:09:32;10.83;;;5.20;;
10537;SDS011;5317;49.048;8.468;2023-10-09T00:12:11;11.47;;;4.80;;
10537;SDS011;5317;49.048;8.468;2023-10-09T00:14:42;11.43;;;5.30;;
10537;SDS011;5317;49.048;8.468;2023-10-09T00:17:13;8.33;;;4.57;;
10537;SDS011;5317;49.048;8.468;2023-10-09T00:19:43;8.20;;;4.67;;
10537;SDS011;5317;49.048;8.468;2023-10-09T00:22:12;10.37;;;5.00;;
10537;SDS011;5317;49.048;8.468;2023-10-09T00:24:51;11.53;;;4.80;;
10537;SDS011;5317;49.048;8.468;2023-10-09T00:27:36;11.20;;;4.80;;
10537;SDS011;5317;49.048;8.468;2023-10-09T00:30:08;14.70;;;5.73;;
10537;SDS011;5317;49.048;8.468;2023-10-09T00:32:40;12.37;;;5.80;;
10537;SDS011;5317;49.048;8.468;2023-10-09T00:35:17;9.57;;;4.90;;
10537;SDS011;5317;49.048;8.468;2023-10-09T00:38:02;11.67;;;5.03;;
10537;SDS011;5317;49.048;8.468;2023-10-09T00:40:39;13.60;;;5.03;;
10537;SDS011;5317;49.048;8.468;2023-10-09T00:43:11;16.30;;;5.87;;
10537;SDS011;5317;49.048;8.468;2023-10-09T00:45:40;16.93;;;5.70;;
10537;SDS011;5317;49.048;8.468;2023-10-09T00:48:10;9.43;;;4.80;;
10537;SDS011;5317;49.048;8.468;2023-10-09T00:50:39;10.33;;;4.80;;
10537;SDS011;5317;49.048;8.468;2023-10-09T00:53:14;11.30;;;4.97;;
10537;SDS011;5317;49.048;8.468;2023-10-09T00:55:43;13.50;;;4.77;;
10537;SDS011;5317;49.048;8.468;2023-10-09T00:58:20;11.80;;;4.63;;
10537;SDS011;5317;49.048;8.468;2023-10-09T01:00:53;11.60;;;5.13;;
10537;SDS011;5317;49.048;8.468;2023-10-09T01:03:21;12.53;;;5.40;;
10537;SDS011;5317;49.048;8.468;2023-10-09T01:05:48;11.80;;;4.33;;
10537;SDS011;5317;49.048;8.468;2023-10-09T01:08:23;14.00;;;4.77;;
10537;SDS011;5317;49.048;8.468;2023-10-09T01:11:10;9.57;;;4.83;;
10537;SDS011;5317;49.048;8.468;2023-10-09T01:13:43;10.27;;;4.67;;
10537;SDS011;5317;49.048;8.468;2023-10-09T01:16:21;12.30;;;5.17;;
10537;SDS011;5317;49.048;8.468;2023-10-09T01:18:49;12.27;;;5.30;;
10537;SDS011;5317;49.048;8.468;2023-10-09T01:21:17;18.07;;;5.70;;
10537;SDS011;5317;49.048;8.468;2023-10-09T01:23:50;10.97;;;5.57;;
10537;SDS011;5317;49.048;8.468;2023-10-09T01:26:33;11.53;;;5.70;;
10537;SDS011;5317;49.048;8.468;2023-10-09T01:29:09;9.80;;;4.67;;
10537;SDS011;5317;49.048;8.468;2023-10-09T01:31:39;8.37;;;4.70;;
10537;SDS011;5317;49.048;8.468;2023-10-09T01:34:11;12.03;;;5.23;;
10537;SDS011;5317;49.048;8.468;2023-10-09T01:36:39;12.73;;;5.67;;
10537;SDS011;5317;49.048;8.468;2023-10-09T01:39:08;14.33;;;5.90;;
10537;SDS011;5317;49.048;8.468;2023-10-09T01:41:46;16.17;;;5.47;;
10537;SDS011;5317;49.048;8.468;2023-10-09T01:44:14;11.27;;;5.40;;
10537;SDS011;5317;49.048;8.468;2023-10-09T01:46:42;8.60;;;4.57;;
10537;SDS011;5317;49.048;8.468;2023-10-09T01:49:11;11.97;;;4.33;;
10537;SDS011;5317;49.048;8.468;2023-10-09T01:51:46;11.33;;;6.23;;
10537;SDS011;5317;49.048;8.468;2023-10-09T01:54:15;8.73;;;3.93;;
10537;SDS011;5317;49.048;8.468;2023-10-09T01:56:58;14.93;;;5.37;;
10537;SDS011;5317;49.048;8.468;2023-10-09T01:59:30;15.77;;;5.93;;
10537;SDS011;5317;49.048;8.468;2023-10-09T02:01:58;11.00;;;4.83;;
10537;SDS011;5317;49.048;8.468;2023-10-09T02:04:26;9.87;;;4.73;;
10537;SDS011;5317;49.048;8.468;2023-10-09T02:06:54;12.73;;;4.80;;
10537;SDS011;5317;49.048;8.468;2023-10-09T02:09:22;16.33;;;5.47;;
10537;SDS011;5317;49.048;8.468;2023-10-09T02:11:55;8.53;;;4.70;;
10537;SDS011;5317;49.048;8.468;2023-10-09T02:14:25;12.33;;;5.30;;
10537;SDS011;5317;49.048;8.468;2023-10-09T02:16:52;12.57;;;5.40;;
10537;SDS011;5317;49.048;8.468;2023-10-09T02:19:31;12.53;;;5.43;;
10537;SDS011;5317;49.048;8.468;2023-10-09T02:21:59;15.67;;;5.53;;
10537;SDS011;5317;49.048;8.468;2023-10-09T02:24:40;12.30;;;5.60;;
10537;SDS011;5317;49.048;8.468;2023-10-09T02:27:14;14.27;;;4.83;;
10537;SDS011;5317;49.048;8.468;2023-10-09T02:30:03;12.80;;;4.90;;
10537;SDS011;5317;49.048;8.468;2023-10-09T02:32:40;12.47;;;5.53;;
10537;SDS011;5317;49.048;8.468;2023-10-09T02:35:14;14.27;;;5.40;;
10537;SDS011;5317;49.048;8.468;2023-10-09T02:38:01;14.67;;;5.50;;
10537;SDS011;5317;49.048;8.468;2023-10-09T02:40:33;17.07;;;6.10;;
10537;SDS011;5317;49.048;8.468;2023-10-09T02:43:05;13.53;;;4.97;;
10537;SDS011;5317;49.048;8.468;2023-10-09T02:45:37;11.80;;;4.93;;
10537;SDS011;5317;49.048;8.468;2023-10-09T02:48:15;13.87;;;5.50;;
10537;SDS011;5317;49.048;8.468;2023-10-09T02:50:44;17.30;;;5.17;;
10537;SDS011;5317;49.048;8.468;2023-10-09T02:53:12;16.20;;;5.80;;
10537;SDS011;5317;49.048;8.468;2023-10-09T02:55:45;10.50;;;4.87;;
10537;SDS011;5317;49.048;8.468;2023-10-09T02:58:29;11.13;;;5.10;;
10537;SDS011;5317;49.048;8.468;2023-10-09T03:00:58;12.20;;;5.37;;
10537;SDS011;5317;49.048;8.468;2023-10-09T03:03:24;10.77;;;5.17;;
10537;SDS011;5317;49.048;8.468;2023-10-09T03:05:52;14.77;;;5.60;;
10537;SDS011;5317;49.048;8.468;2023-10-09T03:08:19;13.20;;;5.00;;
10537;SDS011;5317;49.048;8.468;2023-10-09T03:10:47;10.63;;;5.27;;
10537;SDS011;5317;49.048;8.468;2023-10-09T03:13:14;11.03;;;4.70;;
10537;SDS011;5317;49.048;8.468;2023-10-09T03:15:44;12.70;;;5.20;;
10537;SDS011;5317;49.048;8.468;2023-10-09T03:18:13;13.60;;;5.10;;
10537;SDS011;5317;49.048;8.468;2023-10-09T03:20:40;14.20;;;5.20;;
10537;SDS011;5317;49.048;8.468;2023-10-09T03:23:09;12.63;;;5.37;;
10537;SDS011;5317;49.048;8.468;2023-10-09T03:25:39;14.97;;;6.27;;
10537;SDS011;5317;49.048;8.468;2023-10-09T03:28:11;14.73;;;5.50;;
10537;SDS011;5317;49.048;8.468;2023-10-09T03:30:40;10.70;;;4.60;;
10537;SDS011;5317;49.048;8.468;2023-10-09T03:33:12;13.00;;;5.07;;
10537;SDS011;5317;49.048;8.468;2023-10-09T03:35:40;12.50;;;4.90;;
10537;SDS011;5317;49.048;8.468;2023-10-09T03:38:08;13.60;;;4.47;;
10537;SDS011;5317;49.048;8.468;2023-10-09T03:40:41;12.10;;;4.63;;
10537;SDS011;5317;49.048;8.468;2023-10-09T03:43:08;12.37;;;4.77;;
10537;SDS011;5317;49.048;8.468;2023-10-09T03:45:38;11.83;;;5.17;;
10537;SDS011;5317;49.048;8.468;2023-10-09T03:48:10;13.70;;;4.90;;
10537;SDS011;5317;49.048;8.468;2023-10-09T03:50:45;12.23;;;5.43;;
10537;SDS011;5317;49.048;8.468;2023-10-09T03:53:12;10.57;;;5.13;;
10537;SDS011;5317;49.048;8.468;2023-10-09T03:55:39;13.50;;;5.60;;
10537;SDS011;5317;49.048;8.468;2023-10-09T03:58:07;11.03;;;4.50;;
10537;SDS011;5317;49.048;8.468;2023-10-09T04:00:38;11.57;;;4.87;;
10537;SDS011;5317;49.048;8.468;2023-10-09T04:03:11;14.70;;;5.30;;
10537;SDS011;5317;49.048;8.468;2023-10-09T04:05:39;13.50;;;5.20;;
10537;SDS011;5317;49.048;8.468;2023-10-09T04:08:07;13.90;;;5.37;;
10537;SDS011;5317;49.048;8.468;2023-10-09T04:10:38;13.07;;;5.17;;
10537;SDS011;5317;49.048;8.468;2023-10-09T04:13:17;12.07;;;4.57;;
10537;SDS011;5317;49.048;8.468;2023-10-09T04:15:49;10.90;;;4.73;;
10537;SDS011;5317;49.048;8.468;2023-10-09T04:18:19;10.77;;;5.07;;
10537;SDS011;5317;49.048;8.468;2023-10-09T04:20:53;13.90;;;5.33;;
10537;SDS011;5317;49.048;8.468;2023-10-09T04:23:37;13.03;;;4.70;;
10537;SDS011;5317;49.048;8.468;2023-10-09T04:26:24;15.93;;;5.17;;
10537;SDS011;5317;49.048;8.468;2023-10-09T04:28:50;11.33;;;5.20;;
10537;SDS011;5317;49.048;8.468;2023-10-09T04:31:20;12.47;;;5.10;;
10537;SDS011;5317;49.048;8.468;2023-10-09T04:33:52;13.67;;;5.67;;
10537;SDS011;5317;49.048;8.468;2023-10-09T04:36:44;11.07;;;5.30;;
10537;SDS011;5317;49.048;8.468;2023-10-09T04:39:15;14.80;;;4.83;;
10537;SDS011;5317;49.048;8.468;2023-10-09T04:42:00;13.70;;;4.90;;
10537;SDS011;5317;49.048;8.468;2023-10-09T04:44:45;14.37;;;4.63;;
10537;SDS011;5317;49.048;8.468;2023-10-09T04:47:27;11.50;;;5.27;;
10537;SDS011;5317;49.048;8.468;2023-10-09T04:50:02;11.13;;;4.93;;
10537;SDS011;5317;49.048;8.468;2023-10-09T04:52:36;12.87;;;5.17;;
10537;SDS011;5317;49.048;8.468;2023-10-09T04:55:17;8.77;;;4.77;;
10537;SDS011;5317;49.048;8.468;2023-10-09T04:57:45;14.17;;;5.30;;
10537;SDS011;5317;49.048;8.468;2023-10-09T05:00:26;12.63;;;5.27;;
10537;SDS011;5317;49.048;8.468;2023-10-09T05:03:09;12.77;;;5.50;;
10537;SDS011;5317;49.048;8.468;2023-10-09T05:05:36;13.33;;;5.50;;
10537;SDS011;5317;49.048;8.468;2023-10-09T05:08:23;12.83;;;5.07;;
10537;SDS011;5317;49.048;8.468;2023-10-09T05:10:54;13.13;;;5.23;;
10537;SDS011;5317;49.048;8.468;2023-10-09T05:13:40;12.87;;;5.60;;
10537;SDS011;5317;49.048;8.468;2023-10-09T05:16:09;11.63;;;5.27;;
10537;SDS011;5317;49.048;8.468;2023-10-09T05:18:45;11.57;;;5.37;;
10537;SDS011;5317;49.048;8.468;2023-10-09T05:21:21;11.90;;;5.37;;
10537;SDS011;5317;49.048;8.468;2023-10-09T05:24:09;13.97;;;4.80;;
10537;SDS011;5317;49.048;8.468;2023-10-09T05:26:44;16.27;;;5.83;;
10537;SDS011;5317;49.048;8.468;2023-10-09T05:29:18;12.20;;;5.17;;
10537;SDS011;5317;49.048;8.468;2023-10-09T05:31:59;11.57;;;4.90;;
10537;SDS011;5317;49.048;8.468;2023-10-09T05:34:30;12.63;;;5.67;;
10537;SDS011;5317;49.048;8.468;2023-10-09T05:37:21;13.77;;;5.83;;
10537;SDS011;5317;49.048;8.468;2023-10-09T05:39:49;12.80;;;6.03;;
10537;SDS011;5317;49.048;8.468;2023-10-09T05:42:44;13.37;;;5.23;;
10537;SDS011;5317;49.048;8.468;2023-10-09T05:45:11;13.97;;;5.40;;
10537;SDS011;5317;49.048;8.468;2023-10-09T05:47:57;12.63;;;5.50;;
10537;SDS011;5317;49.048;8.468;2023-10-09T05:50:33;11.87;;;4.47;;
10537;SDS011;5317;49.048;8.468;2023-10-09T05:53:03;13.97;;;5.20;;
10537;SDS011;5317;49.048;8.468;2023-10-09T05:55:32;12.63;;;5.50;;
10537;SDS011;5317;49.048;8.468;2023-10-09T05:58:17;15.57;;;4.87;;
10537;SDS011;5317;49.048;8.468;2023-10-09T06:01:01;14.13;;;5.03;;
10537;SDS011;5317;49.048;8.468;2023-10-09T06:03:45;14.30;;;5.70;;
10537;SDS011;5317;49.048;8.468;2023-10-09T06:06:20;15.87;;;5.10;;
10537;SDS011;5317;49.048;8.468;2023-10-09T06:09:05;14.73;;;5.20;;
10537;SDS011;5317;49.048;8.468;2023-10-09T06:11:50;10.47;;;5.00;;
10537;SDS011;5317;49.048;8.468;2023-10-09T06:14:22;15.33;;;4.80;;
10537;SDS011;5317;49.048;8.468;2023-10-09T06:17:11;15.23;;;5.03;;
10537;SDS011;5317;49.048;8.468;2023-10-09T06:19:48;14.00;;;4.97;;
10537;SDS011;5317;49.048;8.468;2023-10-09T06:22:15;12.73;;;4.80;;
10537;SDS011;5317;49.048;8.468;2023-10-09T06:25:14;13.57;;;5.57;;
10537;SDS011;5317;49.048;8.468;2023-10-09T06:27:43;17.27;;;5.00;;
10537;SDS011;5317;49.048;8.468;2023-10-09T06:30:26;12.37;;;5.10;;
10537;SDS011;5317;49.048;8.468;2023-10-09T06:32:53;17.13;;;5.30;;
10537;SDS011;5317;49.048;8.468;2023-10-09T06:35:44;12.60;;;5.00;;
10537;SDS011;5317;49.048;8.468;2023-10-09T06:38:20;12.20;;;4.63;;
10537;SDS011;5317;49.048;8.468;2023-10-09T06:41:05;14.83;;;5.13;;
10537;SDS011;5317;49.048;8.468;2023-10-09T06:43:59;11.97;;;5.43;;
10537;SDS011;5317;49.048;8.468;2023-10-09T06:46:31;10.47;;;4.97;;
10537;SDS011;5317;49.048;8.468;2023-10-09T06:49:09;11.67;;;4.87;;
10537;SDS011;5317;49.048;8.468;2023-10-09T06:51:55;13.77;;;5.10;;
10537;SDS011;5317;49.048;8.468;2023-10-09T06:54:39;10.20;;;4.97;;
10537;SDS011;5317;49.048;8.468;2023-10-09T06:57:16;10.70;;;4.67;;
10537;SDS011;5317;49.048;8.468;2023-10-09T07:00:05;11.87;;;5.07;;
10537;SDS011;5317;49.048;8.468;2023-10-09T07:02:55;10.63;;;4.17;;
10537;SDS011;5317;49.048;8.468;2023-10-09T07:05:22;12.03;;;4.83;;
10537;SDS011;5317;49.048;8.468;2023-10-09T07:08:03;12.30;;;4.97;;
10537;SDS011;5317;49.048;8.468;2023-10-09T07:10:51;10.67;;;5.03;;
10537;SDS011;5317;49.048;8.468;2023-10-09T07:13:38;13.03;;;4.37;;
10537;SDS011;5317;49.048;8.468;2023-10-09T07:16:04;12.43;;;5.20;;
10537;SDS011;5317;49.048;8.468;2023-10-09T07:18:48;16.97;;;5.00;;
10537;SDS011;5317;49.048;8.468;2023-10-09T07:21:19;11.10;;;4.87;;
10537;SDS011;5317;49.048;8.468;2023-10-09T07:23:53;10.40;;;4.77;;
10537;SDS011;5317;49.048;8.468;2023-10-09T07:26:25;12.90;;;4.40;;
10537;SDS011;5317;49.048;8.468;2023-10-09T07:29:03;12.67;;;5.17;;
10537;SDS011;5317;49.048;8.468;2023-10-09T07:31:46;13.07;;;4.40;;
10537;SDS011;5317;49.048;8.468;2023-10-09T07:34:22;12.37;;;5.07;;
10537;SDS011;5317;49.048;8.468;2023-10-09T07:37:18;14.60;;;4.93;;
10537;SDS011;5317;49.048;8.468;2023-10-09T07:39:47;9.00;;;4.73;;
10537;SDS011;5317;49.048;8.468;2023-10-09T07:42:23;10.23;;;4.30;;
10537;SDS011;5317;49.048;8.468;2023-10-09T07:44:58;16.80;;;5.63;;
10537;SDS011;5317;49.048;8.468;2023-10-09T07:47:36;13.03;;;4.70;;
10537;SDS011;5317;49.048;8.468;2023-10-09T07:50:21;12.20;;;4.80;;
10537;SDS011;5317;49.048;8.468;2023-10-09T07:52:48;11.97;;;4.67;;
10537;SDS011;5317;49.048;8.468;2023-10-09T07:55:16;11.13;;;4.10;;
10537;SDS011;5317;49.048;8.468;2023-10-09T07:57:56;15.50;;;4.83;;
10537;SDS011;5317;49.048;8.468;2023-10-09T08:00:35;7.83;;;4.63;;
10537;SDS011;5317;49.048;8.468;2023-10-09T08:03:14;9.20;;;4.33;;
10537;SDS011;5317;49.048;8.468;2023-10-09T08:05:49;12.20;;;4.83;;
10537;SDS011;5317;49.048;8.468;2023-10-09T08:08:17;11.67;;;4.73;;
10537;SDS011;5317;49.048;8.468;2023-10-09T08:11:06;12.30;;;4.43;;
10537;SDS011;5317;49.048;8.468;2023-10-09T08:14:01;15.43;;;4.60;;
10537;SDS011;5317;49.048;8.468;2023-10-09T08:16:28;11.47;;;4.23;;
10537;SDS011;5317;49.048;8.468;2023-10-09T08:19:06;7.63;;;4.10;;
10537;SDS011;5317;49.048;8.468;2023-10-09T08:21:57;11.50;;;4.13;;
10537;SDS011;5317;49.048;8.468;2023-10-09T08:25:03;10.57;;;4.03;;
10537;SDS011;5317;49.048;8.468;2023-10-09T08:27:29;12.27;;;4.67;;
10537;SDS011;5317;49.048;8.468;2023-10-09T08:30:23;9.30;;;4.67;;
10537;SDS011;5317;49.048;8.468;2023-10-09T08:32:54;13.07;;;4.90;;
10537;SDS011;5317;49.048;8.468;2023-10-09T08:35:34;12.00;;;4.60;;
10537;SDS011;5317;49.048;8.468;2023-10-09T08:38:12;10.33;;;4.47;;
10537;SDS011;5317;49.048;8.468;2023-10-09T08:40:39;13.10;;;4.73;;
10537;SDS011;5317;49.048;8.468;2023-10-09T08:43:08;13.23;;;5.10;;
10537;SDS011;5317;49.048;8.468;2023-10-09T08:45:39;11.77;;;4.57;;
10537;SDS011;5317;49.048;8.468;2023-10-09T08:48:11;10.83;;;3.90;;
10537;SDS011;5317;49.048;8.468;2023-10-09T08:50:40;9.00;;;4.20;;
10537;SDS011;5317;49.048;8.468;2023-10-09T08:53:08;9.30;;;4.07;;
10537;SDS011;5317;49.048;8.468;2023-10-09T08:55:37;15.63;;;4.73;;
10537;SDS011;5317;49.048;8.468;2023-10-09T08:58:04;14.87;;;4.73;;
10537;SDS011;5317;49.048;8.468;2023-10-09T09:00:46;13.67;;;4.70;;
10537;SDS011;5317;49.048;8.468;2023-10-09T09:03:14;11.87;;;5.10;;
10537;SDS011;5317;49.048;8.468;2023-10-09T09:05:43;10.10;;;4.10;;
10537;SDS011;5317;49.048;8.468;2023-10-09T09:08:21;11.70;;;4.90;;
10537;SDS011;5317;49.048;8.468;2023-10-09T09:10:51;11.33;;;3.97;;
10537;SDS011;5317;49.048;8.468;2023-10-09T09:13:25;11.33;;;3.97;;
10537;SDS011;5317;49.048;8.468;2023-10-09T09:15:58;9.13;;;4.30;;
10537;SDS011;5317;49.048;8.468;2023-10-09T09:18:25;9.27;;;4.07;;
10537;SDS011;5317;49.048;8.468;2023-10-09T09:20:57;9.53;;;4.00;;
10537;SDS011;5317;49.048;8.468;2023-10-09T09:23:24;10.80;;;4.00;;
10537;SDS011;5317;49.048;8.468;2023-10-09T09:25:52;10.43;;;5.23;;
10537;SDS011;5317;49.048;8.468;2023-10-09T09:28:24;10.80;;;4.40;;
10537;SDS011;5317;49.048;8.468;2023-10-09T09:31:07;14.47;;;4.00;;
10537;SDS011;5317;49.048;8.468;2023-10-09T09:33:39;8.27;;;4.03;;
10537;SDS011;5317;49.048;8.468;2023-10-09T09:36:07;11.50;;;4.20;;
10537;SDS011;5317;49.048;8.468;2023-10-09T09:38:36;13.47;;;4.63;;
10537;SDS011;5317;49.048;8.468;2023-10-09T09:41:13;11.80;;;4.67;;
10537;SDS011;5317;49.048;8.468;2023-10-09T09:43:49;14.20;;;4.27;;
10537;SDS011;5317;49.048;8.468;2023-10-09T09:46:20;12.27;;;4.30;;
10537;SDS011;5317;49.048;8.468;2023-10-09T09:48:57;14.27;;;4.40;;
10537;SDS011;5317;49.048;8.468;2023-10-09T09:51:29;12.97;;;4.63;;
10537;SDS011;5317;49.048;8.468;2023-10-09T09:53:57;11.20;;;4.67;;
10537;SDS011;5317;49.048;8.468;2023-10-09T09:56:25;12.40;;;4.37;;
10537;SDS011;5317;49.048;8.468;2023-10-09T09:58:53;10.93;;;4.10;;
10537;SDS011;5317;49.048;8.468;2023-10-09T10:01:25;10.37;;;3.90;;
10537;SDS011;5317;49.048;8.468;2023-10-09T10:03:57;11.17;;;4.20;;
10537;SDS011;5317;49.048;8.468;2023-10-09T10:06:26;15.20;;;4.40;;
10537;SDS011;5317;49.048;8.468;2023-10-09T10:08:57;9.57;;;4.23;;
10537;SDS011;5317;49.048;8.468;2023-10-09T10:14:10;8.40;;;3.90;;
10537;SDS011;5317;49.048;8.468;2023-10-09T10:22:47;9.33;;;4.33;;
10537;SDS011;5317;49.048;8.468;2023-10-09T10:28:15;11.40;;;3.50;;
10537;SDS011;5317;49.048;8.468;2023-10-09T10:31:03;11.40;;;3.63;;
10537;SDS011;5317;49.048;8.468;2023-10-09T10:36:35;14.70;;;4.30;;
10537;SDS011;5317;49.048;8.468;2023-10-09T10:39:07;5.67;;;3.50;;
10537;SDS011;5317;49.048;8.468;2023-10-09T10:41:36;10.10;;;3.70;;
10537;SDS011;5317;49.048;8.468;2023-10-09T10:44:26;16.60;;;3.60;;
10537;SDS011;5317;49.048;8.468;2023-10-09T10:47:01;8.33;;;3.80;;
10537;SDS011;5317;49.048;8.468;2023-10-09T10:49:31;11.13;;;4.00;;
10537;SDS011;5317;49.048;8.468;2023-10-09T10:52:05;8.50;;;3.93;;
10537;SDS011;5317;49.048;8.468;2023-10-09T10:54:42;10.97;;;3.73;;
10537;SDS011;5317;49.048;8.468;2023-10-09T10:57:17;9.80;;;3.43;;
10537;SDS011;5317;49.048;8.468;2023-10-09T11:00:18;8.47;;;4.23;;
10537;SDS011;5317;49.048;8.468;2023-10-09T11:02:59;9.13;;;3.57;;
10537;SDS011;5317;49.048;8.468;2023-10-09T11:05:40;11.23;;;4.17;;
10537;SDS011;5317;49.048;8.468;2023-10-09T11:08:11;12.97;;;4.00;;
10537;SDS011;5317;49.048;8.468;2023-10-09T11:10:38;8.93;;;3.50;;
10537;SDS011;5317;49.048;8.468;2023-10-09T11:13:20;11.77;;;3.80;;
10537;SDS011;5317;49.048;8.468;2023-10-09T11:16:00;10.27;;;4.03;;
10537;SDS011;5317;49.048;8.468;2023-10-09T11:18:49;8.53;;;3.50;;
10537;SDS011;5317;49.048;8.468;2023-10-09T11:21:17;10.33;;;3.60;;
10537;SDS011;5317;49.048;8.468;2023-10-09T11:23:59;8.30;;;3.53;;
10537;SDS011;5317;49.048;8.468;2023-10-09T11:26:41;8.27;;;3.53;;
10537;SDS011;5317;49.048;8.468;2023-10-09T11:29:18;8.93;;;3.93;;
10537;SDS011;5317;49.048;8.468;2023-10-09T11:31:58;15.00;;;4.10;;
10537;SDS011;5317;49.048;8.468;2023-10-09T11:34:26;12.80;;;3.93;;
10537;SDS011;5317;49.048;8.468;2023-10-09T11:37:01;9.83;;;3.93;;
10537;SDS011;5317;49.048;8.468;2023-10-09T11:39:31;9.83;;;4.00;;
10537;SDS011;5317;49.048;8.468;2023-10-09T11:42:04;13.17;;;4.07;;
10537;SDS011;5317;49.048;8.468;2023-10-09T11:44:38;10.97;;;4.07;;
10537;SDS011;5317;49.048;8.468;2023-10-09T11:47:05;10.67;;;4.27;;
10537;SDS011;5317;49.048;8.468;2023-10-09T11:49:58;13.67;;;4.50;;
10537;SDS011;5317;49.048;8.468;2023-10-09T11:52:56;13.40;;;4.00;;
10537;SDS011;5317;49.048;8.468;2023-10-09T11:55:44;14.70;;;4.07;;
10537;SDS011;5317;49.048;8.468;2023-10-09T11:58:13;10.57;;;4.03;;
10537;SDS011;5317;49.048;8.468;2023-10-09T12:00:49;9.57;;;3.73;;
10537;SDS011;5317;49.048;8.468;2023-10-09T12:03:21;10.77;;;4.27;;
10537;SDS011;5317;49.048;8.468;2023-10-09T12:05:53;11.00;;;3.83;;
10537;SDS011;5317;49.048;8.468;2023-10-09T12:08:22;15.17;;;4.33;;
10537;SDS011;5317;49.048;8.468;2023-10-09T12:10:52;10.00;;;3.90;;
10537;SDS011;5317;49.048;8.468;2023-10-09T12:13:22;10.13;;;4.00;;
10537;SDS011;5317;49.048;8.468;2023-10-09T12:15:50;10.20;;;4.63;;
10537;SDS011;5317;49.048;8.468;2023-10-09T12:18:19;10.50;;;4.03;;
10537;SDS011;5317;49.048;8.468;2023-10-09T12:20:48;9.90;;;4.27;;
10537;SDS011;5317;49.048;8.468;2023-10-09T12:23:28;10.67;;;4.00;;
10537;SDS011;5317;49.048;8.468;2023-10-09T12:26:00;8.57;;;3.57;;
10537;SDS011;5317;49.048;8.468;2023-10-09T12:28:27;12.57;;;4.57;;
10537;SDS011;5317;49.048;8.468;2023-10-09T12:30:58;7.60;;;4.13;;
10537;SDS011;5317;49.048;8.468;2023-10-09T12:33:27;10.23;;;4.23;;
10537;SDS011;5317;49.048;8.468;2023-10-09T12:35:55;8.20;;;4.00;;
10537;SDS011;5317;49.048;8.468;2023-10-09T12:38:25;8.27;;;3.83;;
10537;SDS011;5317;49.048;8.468;2023-10-09T12:41:01;7.10;;;4.07;;
10537;SDS011;5317;49.048;8.468;2023-10-09T12:43:33;11.87;;;3.70;;
10537;SDS011;5317;49.048;8.468;2023-10-09T12:46:04;9.00;;;4.07;;
10537;SDS011;5317;49.048;8.468;2023-10-09T12:48:32;9.37;;;3.93;;
10537;SDS011;5317;49.048;8.468;2023-10-09T12:51:00;14.30;;;4.50;;
10537;SDS011;5317;49.048;8.468;2023-10-09T12:53:31;7.80;;;3.90;;
10537;SDS011;5317;49.048;8.468;2023-10-09T12:55:58;10.27;;;3.37;;
10537;SDS011;5317;49.048;8.468;2023-10-09T12:58:26;8.70;;;4.27;;
10537;SDS011;5317;49.048;8.468;2023-10-09T13:00:53;11.70;;;4.23;;
10537;SDS011;5317;49.048;8.468;2023-10-09T13:03:20;8.77;;;4.50;;
10537;SDS011;5317;49.048;8.468;2023-10-09T13:05:53;10.37;;;4.00;;
10537;SDS011;5317;49.048;8.468;2023-10-09T13:08:21;7.30;;;4.00;;
10537;SDS011;5317;49.048;8.468;2023-10-09T13:10:49;11.43;;;4.17;;
10537;SDS011;5317;49.048;8.468;2023-10-09T13:13:28;13.20;;;4.13;;
10537;SDS011;5317;49.048;8.468;2023-10-09T13:16:05;11.07;;;4.10;;
10537;SDS011;5317;49.048;8.468;2023-10-09T13:18:39;9.70;;;4.83;;
10537;SDS011;5317;49.048;8.468;2023-10-09T13:21:06;14.50;;;4.47;;
10537;SDS011;5317;49.048;8.468;2023-10-09T13:23:33;10.00;;;4.53;;
10537;SDS011;5317;49.048;8.468;2023-10-09T13:26:05;11.50;;;4.30;;
10537;SDS011;5317;49.048;8.468;2023-10-09T13:28:45;8.67;;;4.67;;
10537;SDS011;5317;49.048;8.468;2023-10-09T13:31:13;15.30;;;4.73;;
10537;SDS011;5317;49.048;8.468;2023-10-09T13:33:41;12.57;;;4.67;;
10537;SDS011;5317;49.048;8.468;2023-10-09T13:36:09;17.57;;;4.20;;
10537;SDS011;5317;49.048;8.468;2023-10-09T13:38:42;11.93;;;4.73;;
10537;SDS011;5317;49.048;8.468;2023-10-09T13:41:10;11.53;;;4.73;;
10537;SDS011;5317;49.048;8.468;2023-10-09T13:43:40;11.63;;;5.03;;
10537;SDS011;5317;49.048;8.468;2023-10-09T13:46:10;10.03;;;4.47;;
10537;SDS011;5317;49.048;8.468;2023-10-09T13:48:39;8.30;;;3.90;;
10537;SDS011;5317;49.048;8.468;2023-10-09T13:51:08;11.53;;;4.60;;
10537;SDS011;5317;49.048;8.468;2023-10-09T13:53:39;11.67;;;4.20;;
10537;SDS011;5317;49.048;8.468;2023-10-09T13:56:11;10.53;;;4.80;;
10537;SDS011;5317;49.048;8.468;2023-10-09T13:58:43;13.50;;;4.63;;
10537;SDS011;5317;49.048;8.468;2023-10-09T14:01:12;11.50;;;4.73;;
10537;SDS011;5317;49.048;8.468;2023-10-09T14:03:52;13.03;;;5.30;;
10537;SDS011;5317;49.048;8.468;2023-10-09T14:06:22;14.63;;;4.57;;
10537;SDS011;5317;49.048;8.468;2023-10-09T14:08:56;14.77;;;4.87;;
10537;SDS011;5317;49.048;8.468;2023-10-09T14:11:24;12.13;;;4.30;;
10537;SDS011;5317;49.048;8.468;2023-10-09T14:13:51;12.93;;;4.80;;
10537;SDS011;5317;49.048;8.468;2023-10-09T14:16:20;9.80;;;4.53;;
10537;SDS011;5317;49.048;8.468;2023-10-09T14:18:56;11.63;;;4.53;;
10537;SDS011;5317;49.048;8.468;2023-10-09T14:21:25;8.40;;;4.20;;
10537;SDS011;5317;49.048;8.468;2023-10-09T14:23:55;10.53;;;4.03;;
10537;SDS011;5317;49.048;8.468;2023-10-09T14:26:24;11.10;;;5.03;;
10537;SDS011;5317;49.048;8.468;2023-10-09T14:28:51;13.20;;;5.10;;
10537;SDS011;5317;49.048;8.468;2023-10-09T14:31:20;13.17;;;4.37;;
10537;SDS011;5317;49.048;8.468;2023-10-09T14:33:52;9.23;;;4.40;;
10537;SDS011;5317;49.048;8.468;2023-10-09T14:36:19;10.87;;;4.73;;
10537;SDS011;5317;49.048;8.468;2023-10-09T14:38:49;10.50;;;4.53;;
10537;SDS011;5317;49.048;8.468;2023-10-09T14:41:19;11.43;;;4.67;;
10537;SDS011;5317;49.048;8.468;2023-10-09T14:43:48;10.93;;;4.97;;
10537;SDS011;5317;49.048;8.468;2023-10-09T14:46:16;10.37;;;4.90;;
10537;SDS011;5317;49.048;8.468;2023-10-09T14:48:49;13.67;;;5.20;;
10537;SDS011;5317;49.048;8.468;2023-10-09T14:51:18;10.80;;;4.40;;
10537;SDS011;5317;49.048;8.468;2023-10-09T14:53:51;10.10;;;4.43;;
10537;SDS011;5317;49.048;8.468;2023-10-09T14:56:22;12.67;;;4.80;;
10537;SDS011;5317;49.048;8.468;2023-10-09T14:58:54;11.20;;;4.77;;
10537;SDS011;5317;49.048;8.468;2023-10-09T15:01:22;11.60;;;4.43;;
10537;SDS011;5317;49.048;8.468;2023-10-09T15:03:51;10.10;;;4.20;;
10537;SDS011;5317;49.048;8.468;2023-10-09T15:06:20;8.27;;;4.53;;
10537;SDS011;5317;49.048;8.468;2023-10-09T15:08:48;11.33;;;4.47;;
10537;SDS011;5317;49.048;8.468;2023-10-09T15:11:15;15.97;;;5.13;;
10537;SDS011;5317;49.048;8.468;2023-10-09T15:13:42;13.70;;;5.17;;
10537;SDS011;5317;49.048;8.468;2023-10-09T15:16:09;11.30;;;4.90;;
10537;SDS011;5317;49.048;8.468;2023-10-09T15:18:36;12.13;;;4.77;;
10537;SDS011;5317;49.048;8.468;2023-10-09T15:21:05;18.27;;;5.50;;
10537;SDS011;5317;49.048;8.468;2023-10-09T15:23:33;10.37;;;4.70;;
10537;SDS011;5317;49.048;8.468;2023-10-09T15:26:01;16.53;;;4.97;;
10537;SDS011;5317;49.048;8.468;2023-10-09T15:28:31;11.50;;;5.20;;
10537;SDS011;5317;49.048;8.468;2023-10-09T15:30:58;12.50;;;5.37;;
10537;SDS011;5317;49.048;8.468;2023-10-09T15:33:25;13.97;;;4.73;;
10537;SDS011;5317;49.048;8.468;2023-10-09T15:35:56;12.83;;;4.53;;
10537;SDS011;5317;49.048;8.468;2023-10-09T15:38:25;13.23;;;4.83;;
10537;SDS011;5317;49.048;8.468;2023-10-09T15:40:54;13.57;;;5.33;;
10537;SDS011;5317;49.048;8.468;2023-10-09T15:43:21;16.00;;;5.07;;
10537;SDS011;5317;49.048;8.468;2023-10-09T15:45:47;14.53;;;5.13;;